createdAt,value
2022-12-29T00:01:12.748Z,8.73
2022-12-29T00:03:30.315Z,8.75
2022-12-29T00:05:47.688Z,8.77
2022-12-29T00:08:05.025Z,8.81
2022-12-29T00:10:22.090Z,8.83
2022-12-29T00:12:39.058Z,8.74
2022-12-29T00:14:56.404Z,8.76
2022-12-29T00:17:13.403Z,8.71
2022-12-29T00:19:31.397Z,8.77
2022-12-29T00:21:48.476Z,8.70
2022-12-29T00:24:05.508Z,8.73
2022-12-29T00:26:22.886Z,8.72
2022-12-29T00:28:40.085Z,8.72
2022-12-29T00:30:57.150Z,8.72
2022-12-29T00:33:15.562Z,8.73
2022-12-29T00:35:32.893Z,8.72
2022-12-29T00:37:50.768Z,8.72
2022-12-29T00:40:07.844Z,8.72
2022-12-29T00:42:25.155Z,8.84
2022-12-29T00:44:43.211Z,8.90
2022-12-29T00:47:00.282Z,8.86
2022-12-29T00:49:21.678Z,8.86
2022-12-29T00:51:38.725Z,8.93
2022-12-29T00:53:55.967Z,8.91
2022-12-29T00:56:13.028Z,8.90
2022-12-29T00:58:30.043Z,8.87
2022-12-29T01:00:47.343Z,8.86
2022-12-29T01:03:04.708Z,8.89
2022-12-29T01:05:21.945Z,8.86
2022-12-29T01:07:38.908Z,8.90
2022-12-29T01:09:57.270Z,8.94
2022-12-29T01:12:14.528Z,9.05
2022-12-29T01:14:31.563Z,9.14
2022-12-29T01:16:48.559Z,9.10
2022-12-29T01:19:05.817Z,9.08
2022-12-29T01:21:22.824Z,9.07
2022-12-29T01:23:39.816Z,9.09
2022-12-29T01:25:57.032Z,9.14
2022-12-29T01:28:14.381Z,9.13
2022-12-29T01:30:31.409Z,9.09
2022-12-29T01:32:48.827Z,9.07
2022-12-29T01:35:05.881Z,9.09
2022-12-29T01:37:24.230Z,9.13
2022-12-29T01:39:42.532Z,9.21
2022-12-29T01:41:59.782Z,9.11
2022-12-29T01:44:17.094Z,9.14
2022-12-29T01:46:35.052Z,9.10
2022-12-29T01:48:52.124Z,9.09
2022-12-29T01:51:10.431Z,9.09
2022-12-29T01:53:27.425Z,9.08
2022-12-29T01:55:44.938Z,9.05
2022-12-29T01:58:02.248Z,9.09
2022-12-29T02:00:19.622Z,9.11
2022-12-29T02:02:37.050Z,9.08
2022-12-29T02:04:57.889Z,9.08
2022-12-29T02:07:17.438Z,9.12
2022-12-29T02:09:34.774Z,9.23
2022-12-29T02:11:51.778Z,9.23
2022-12-29T02:14:10.010Z,9.23
2022-12-29T02:16:27.321Z,9.20
2022-12-29T02:18:45.630Z,9.17
2022-12-29T02:21:02.565Z,9.11
2022-12-29T02:23:20.829Z,9.12
2022-12-29T02:25:37.842Z,9.11
2022-12-29T02:27:54.894Z,9.09
2022-12-29T02:30:12.201Z,9.15
2022-12-29T02:32:29.510Z,9.24
2022-12-29T02:34:46.799Z,9.20
2022-12-29T02:37:04.579Z,9.23
2022-12-29T02:39:21.618Z,9.24
2022-12-29T02:41:38.549Z,9.22
2022-12-29T02:43:56.591Z,9.21
2022-12-29T02:46:13.713Z,9.27
2022-12-29T02:48:32.256Z,9.25
2022-12-29T02:50:49.335Z,9.26
2022-12-29T02:53:06.723Z,9.29
2022-12-29T02:55:24.775Z,9.26
2022-12-29T02:57:41.857Z,9.28
2022-12-29T02:59:59.039Z,9.30
2022-12-29T03:02:16.171Z,9.35
2022-12-29T03:04:34.641Z,9.41
2022-12-29T03:06:51.757Z,9.35
2022-12-29T03:09:19.160Z,9.42
2022-12-29T03:11:36.535Z,9.35
2022-12-29T03:13:54.664Z,9.34
2022-12-29T03:16:12.142Z,9.35
2022-12-29T03:18:29.148Z,9.45
2022-12-29T03:20:46.074Z,9.44
2022-12-29T03:23:03.339Z,9.47
2022-12-29T03:25:20.570Z,9.59
2022-12-29T03:27:37.857Z,9.63
2022-12-29T03:29:57.577Z,9.61
2022-12-29T03:32:14.525Z,9.53
2022-12-29T03:34:31.463Z,9.60
2022-12-29T03:36:49.742Z,9.66
2022-12-29T03:39:07.025Z,9.72
2022-12-29T03:41:25.264Z,9.67
2022-12-29T03:43:42.589Z,9.57
2022-12-29T03:45:59.673Z,9.55
2022-12-29T03:48:16.657Z,9.59
2022-12-29T03:50:35.078Z,9.56
2022-12-29T03:52:52.366Z,9.61
2022-12-29T03:55:09.694Z,9.59
2022-12-29T03:57:26.719Z,9.63
2022-12-29T03:59:43.704Z,9.54
2022-12-29T04:02:00.800Z,9.49
2022-12-29T04:04:18.026Z,9.56
2022-12-29T04:06:35.283Z,9.52
2022-12-29T04:08:52.329Z,9.52
2022-12-29T04:11:09.364Z,9.51
2022-12-29T04:13:26.707Z,9.59
2022-12-29T04:15:43.753Z,9.52
2022-12-29T04:18:01.003Z,9.54
2022-12-29T04:20:17.989Z,9.47
2022-12-29T04:22:34.871Z,9.42
2022-12-29T04:24:51.939Z,9.45
2022-12-29T04:27:10.179Z,9.49
2022-12-29T04:29:27.161Z,9.41
2022-12-29T04:31:44.307Z,9.42
2022-12-29T04:34:02.608Z,9.39
2022-12-29T04:36:19.849Z,9.40
2022-12-29T04:38:37.853Z,9.33
2022-12-29T04:40:55.184Z,9.31
2022-12-29T04:43:12.149Z,9.27
2022-12-29T04:45:29.150Z,9.33
2022-12-29T04:47:46.141Z,9.40
2022-12-29T04:50:03.076Z,9.33
2022-12-29T04:52:20.360Z,9.32
2022-12-29T04:54:38.621Z,9.28
2022-12-29T04:56:55.678Z,9.25
2022-12-29T04:59:12.600Z,9.35
2022-12-29T05:01:29.772Z,9.53
2022-12-29T05:03:47.918Z,9.51
2022-12-29T05:06:04.993Z,9.43
2022-12-29T05:08:27.809Z,9.41
2022-12-29T05:10:45.400Z,9.39
2022-12-29T05:13:02.240Z,9.36
2022-12-29T05:15:19.255Z,9.37
2022-12-29T05:17:36.522Z,9.38
2022-12-29T05:19:53.785Z,9.38
2022-12-29T05:22:10.844Z,9.36
2022-12-29T05:24:27.726Z,9.34
2022-12-29T05:26:44.806Z,9.46
2022-12-29T05:29:01.841Z,9.48
2022-12-29T05:31:18.892Z,9.56
2022-12-29T05:33:35.992Z,9.47
2022-12-29T05:35:53.427Z,9.46
2022-12-29T05:38:10.466Z,9.50
2022-12-29T05:40:28.494Z,9.57
2022-12-29T05:42:45.746Z,9.48
2022-12-29T05:45:02.728Z,9.45
2022-12-29T05:47:20.040Z,9.48
2022-12-29T05:49:37.039Z,9.48
2022-12-29T05:51:55.245Z,9.43
2022-12-29T05:54:12.542Z,9.47
2022-12-29T05:56:29.753Z,9.43
2022-12-29T05:58:46.687Z,9.39
2022-12-29T06:01:03.629Z,9.54
2022-12-29T06:03:21.152Z,9.43
2022-12-29T06:05:38.229Z,9.45
2022-12-29T06:07:56.268Z,9.47
2022-12-29T06:10:13.675Z,9.43
2022-12-29T06:12:30.981Z,9.52
2022-12-29T06:14:48.217Z,9.42
2022-12-29T06:17:05.123Z,9.39
2022-12-29T06:19:22.347Z,9.38
2022-12-29T06:21:39.616Z,9.35
2022-12-29T06:23:56.652Z,9.37
2022-12-29T06:26:13.636Z,9.37
2022-12-29T06:28:30.865Z,9.42
2022-12-29T06:30:48.156Z,9.35
2022-12-29T06:33:05.169Z,9.36
2022-12-29T06:35:23.750Z,9.35
2022-12-29T06:37:40.972Z,9.31
2022-12-29T06:39:58.019Z,9.32
2022-12-29T06:42:15.871Z,9.35
2022-12-29T06:44:33.115Z,9.30
2022-12-29T06:46:51.152Z,9.25
2022-12-29T06:49:08.076Z,9.38
2022-12-29T06:51:25.100Z,9.36
2022-12-29T06:53:42.134Z,9.35
2022-12-29T06:55:59.388Z,9.35
2022-12-29T06:58:16.675Z,9.40
2022-12-29T07:00:34.431Z,9.41
2022-12-29T07:02:52.447Z,9.35
2022-12-29T07:05:09.511Z,9.33
2022-12-29T07:07:26.813Z,9.34
2022-12-29T07:09:43.779Z,9.27
2022-12-29T07:12:00.785Z,9.23
2022-12-29T07:14:17.989Z,9.27
2022-12-29T07:16:35.067Z,9.27
2022-12-29T07:18:52.095Z,9.25
2022-12-29T07:21:09.125Z,9.20
2022-12-29T07:23:26.052Z,9.18
2022-12-29T07:25:43.370Z,9.24
2022-12-29T07:28:00.414Z,9.20
2022-12-29T07:30:17.515Z,9.30
2022-12-29T07:32:34.524Z,9.25
2022-12-29T07:34:52.869Z,9.22
2022-12-29T07:37:10.169Z,9.36
2022-12-29T07:39:27.080Z,9.30
2022-12-29T07:41:45.361Z,9.27
2022-12-29T07:44:02.578Z,9.28
2022-12-29T07:46:56.512Z,9.29
2022-12-29T07:48:57.734Z,9.49
2022-12-29T07:51:14.942Z,9.42
2022-12-29T07:53:32.267Z,9.46
2022-12-29T07:55:49.577Z,9.47
2022-12-29T07:58:06.774Z,9.48
2022-12-29T08:00:23.795Z,9.43
2022-12-29T08:02:41.098Z,9.53
2022-12-29T08:04:59.217Z,9.54
2022-12-29T08:07:16.402Z,9.61
2022-12-29T08:09:33.456Z,9.66
2022-12-29T08:11:50.766Z,9.65
2022-12-29T08:14:08.075Z,9.73
2022-12-29T08:16:25.192Z,9.64
2022-12-29T08:18:42.773Z,9.56
2022-12-29T08:21:00.069Z,9.60
2022-12-29T08:23:18.105Z,9.53
2022-12-29T08:25:35.073Z,9.64
2022-12-29T08:27:52.099Z,9.60
2022-12-29T08:30:09.164Z,9.53
2022-12-29T08:32:26.343Z,9.75
2022-12-29T08:34:43.777Z,9.79
2022-12-29T08:37:01.080Z,9.81
2022-12-29T08:39:18.160Z,9.71
2022-12-29T08:41:35.236Z,9.67
2022-12-29T08:43:52.303Z,9.67
2022-12-29T08:46:09.568Z,9.77
2022-12-29T08:48:26.954Z,9.87
2022-12-29T08:50:43.931Z,9.87
2022-12-29T08:53:00.933Z,9.78
2022-12-29T08:55:17.962Z,9.78
2022-12-29T08:57:34.941Z,9.78
2022-12-29T08:59:52.926Z,9.80
2022-12-29T09:02:10.042Z,9.73
2022-12-29T09:04:27.550Z,9.78
2022-12-29T09:06:44.730Z,9.87
2022-12-29T09:09:01.854Z,9.86
2022-12-29T09:11:18.856Z,9.88
2022-12-29T09:13:36.846Z,9.94
2022-12-29T09:15:53.816Z,9.97
2022-12-29T09:18:13.653Z,10.06
2022-12-29T09:20:33.347Z,9.87
2022-12-29T09:22:50.605Z,9.88
2022-12-29T09:25:07.625Z,9.86
2022-12-29T09:27:25.623Z,9.79
2022-12-29T09:29:42.651Z,9.71
2022-12-29T09:31:59.637Z,9.68
2022-12-29T09:34:16.565Z,9.76
2022-12-29T09:36:33.531Z,9.78
2022-12-29T09:38:50.785Z,9.72
2022-12-29T09:41:08.760Z,9.73
2022-12-29T09:43:25.794Z,9.76
2022-12-29T09:45:42.796Z,9.71
2022-12-29T09:48:01.315Z,9.91
2022-12-29T09:50:20.928Z,10.07
2022-12-29T09:52:37.833Z,10.24
2022-12-29T09:55:00.878Z,10.43
2022-12-29T09:57:20.121Z,10.56
2022-12-29T09:59:37.321Z,10.57
2022-12-29T10:01:54.532Z,10.59
2022-12-29T10:04:11.740Z,10.54
2022-12-29T10:06:28.751Z,10.49
2022-12-29T10:08:45.791Z,10.36
2022-12-29T10:11:02.726Z,10.38
2022-12-29T10:13:19.693Z,10.35
2022-12-29T10:15:36.685Z,10.29
2022-12-29T10:17:53.662Z,10.26
2022-12-29T10:20:10.761Z,10.33
2022-12-29T10:22:27.784Z,10.26
2022-12-29T10:24:44.808Z,10.30
2022-12-29T10:27:01.750Z,10.41
2022-12-29T10:29:19.687Z,10.47
2022-12-29T10:31:36.720Z,10.57
2022-12-29T10:33:53.800Z,10.64
2022-12-29T10:36:10.834Z,10.66
2022-12-29T10:38:28.102Z,10.77
2022-12-29T10:40:45.359Z,10.85
2022-12-29T10:43:02.394Z,10.82
2022-12-29T10:45:20.471Z,10.95
2022-12-29T10:47:37.756Z,10.93
2022-12-29T10:49:54.980Z,10.85
2022-12-29T10:52:12.210Z,10.82
2022-12-29T10:54:29.489Z,10.95
2022-12-29T10:56:47.526Z,11.00
2022-12-29T10:59:04.780Z,10.92
2022-12-29T11:01:21.795Z,11.15
2022-12-29T11:03:38.793Z,11.14
2022-12-29T11:05:56.082Z,11.24
2022-12-29T11:08:13.094Z,11.33
2022-12-29T11:10:30.125Z,11.24
2022-12-29T11:12:47.357Z,11.27
2022-12-29T11:15:04.791Z,11.23
2022-12-29T11:17:22.069Z,11.41
2022-12-29T11:19:41.156Z,11.51
2022-12-29T11:21:59.448Z,11.35
2022-12-29T11:24:16.737Z,11.31
2022-12-29T11:26:34.715Z,11.45
2022-12-29T11:28:52.108Z,11.39
2022-12-29T11:31:09.152Z,11.43
2022-12-29T11:33:26.469Z,11.42
2022-12-29T11:35:43.461Z,11.41
2022-12-29T11:38:00.756Z,11.37
2022-12-29T11:40:17.818Z,11.38
2022-12-29T11:42:35.152Z,11.41
2022-12-29T11:44:52.386Z,11.49
2022-12-29T11:47:09.691Z,11.38
2022-12-29T11:49:26.962Z,11.27
2022-12-29T11:51:44.126Z,11.25
2022-12-29T11:54:01.340Z,11.31
2022-12-29T11:56:19.236Z,11.29
2022-12-29T11:58:36.302Z,11.24
2022-12-29T12:00:53.647Z,11.15
2022-12-29T12:03:10.776Z,11.11
2022-12-29T12:05:27.776Z,11.10
2022-12-29T12:07:44.708Z,11.13
2022-12-29T12:10:07.109Z,11.17
2022-12-29T12:12:24.810Z,11.30
2022-12-29T12:14:41.868Z,11.26
2022-12-29T12:16:59.337Z,11.13
2022-12-29T12:19:17.266Z,11.06
2022-12-29T12:21:34.544Z,11.15
2022-12-29T12:23:54.606Z,11.13
2022-12-29T12:26:12.635Z,11.17
2022-12-29T12:28:36.303Z,11.34
2022-12-29T12:30:54.749Z,11.37
2022-12-29T12:33:11.812Z,11.41
2022-12-29T12:35:28.808Z,11.28
2022-12-29T12:37:46.163Z,11.26
2022-12-29T12:40:03.481Z,11.28
2022-12-29T12:42:20.831Z,11.28
2022-12-29T12:44:37.860Z,11.21
2022-12-29T12:46:55.886Z,11.29
2022-12-29T12:49:13.278Z,11.37
2022-12-29T12:51:30.259Z,11.32
2022-12-29T12:53:47.457Z,11.36
2022-12-29T12:56:05.489Z,11.54
2022-12-29T12:58:22.442Z,11.60
2022-12-29T13:00:39.465Z,11.45
2022-12-29T13:02:56.613Z,11.30
2022-12-29T13:05:13.957Z,11.30
2022-12-29T13:07:31.883Z,11.17
2022-12-29T13:09:49.126Z,11.05
2022-12-29T13:12:07.214Z,11.03
2022-12-29T13:14:25.425Z,11.07
2022-12-29T13:16:42.372Z,11.09
2022-12-29T13:18:59.666Z,11.22
2022-12-29T13:21:16.700Z,11.15
2022-12-29T13:23:33.722Z,11.26
2022-12-29T13:25:50.705Z,11.31
2022-12-29T13:28:07.635Z,11.21
2022-12-29T13:30:24.668Z,11.13
2022-12-29T13:32:41.581Z,11.17
2022-12-29T13:34:58.548Z,11.13
2022-12-29T13:37:15.556Z,11.00
2022-12-29T13:39:34.036Z,10.87
2022-12-29T13:41:51.121Z,10.93
2022-12-29T13:44:08.097Z,10.98
2022-12-29T13:46:25.388Z,11.04
2022-12-29T13:48:42.542Z,10.88
2022-12-29T13:50:59.858Z,10.81
2022-12-29T13:53:17.158Z,10.86
2022-12-29T13:55:34.431Z,10.75
2022-12-29T13:57:51.668Z,10.88
2022-12-29T14:00:08.962Z,10.76
2022-12-29T14:02:26.195Z,10.74
2022-12-29T14:04:44.301Z,10.83
2022-12-29T14:07:01.544Z,10.75
2022-12-29T14:09:19.846Z,10.93
2022-12-29T14:11:36.852Z,10.94
2022-12-29T14:13:53.894Z,10.92
2022-12-29T14:16:10.976Z,10.84
2022-12-29T14:18:29.057Z,10.78
2022-12-29T14:20:46.098Z,10.85
2022-12-29T14:23:03.036Z,10.75
2022-12-29T14:25:20.083Z,10.79
2022-12-29T14:27:37.101Z,10.52
2022-12-29T14:29:55.189Z,10.50
2022-12-29T14:32:12.239Z,10.48
2022-12-29T14:34:29.249Z,10.31
2022-12-29T14:36:46.360Z,10.24
2022-12-29T14:39:04.444Z,10.23
2022-12-29T14:41:21.648Z,10.23
2022-12-29T14:43:39.861Z,10.19
2022-12-29T14:45:57.197Z,10.14
2022-12-29T14:48:14.233Z,10.11
2022-12-29T14:50:31.160Z,10.06
2022-12-29T14:52:49.402Z,10.02
2022-12-29T14:55:06.478Z,10.08
2022-12-29T14:57:23.392Z,10.02
2022-12-29T14:59:40.362Z,9.91
2022-12-29T15:01:57.380Z,9.86
2022-12-29T15:04:14.563Z,9.75
2022-12-29T15:06:31.829Z,9.67
2022-12-29T15:08:49.067Z,9.57
2022-12-29T15:11:06.144Z,9.49
2022-12-29T15:13:23.212Z,9.41
2022-12-29T15:15:40.256Z,9.27
2022-12-29T15:17:57.196Z,9.18
2022-12-29T15:20:14.437Z,9.12
2022-12-29T15:22:31.499Z,9.14
2022-12-29T15:24:48.486Z,9.19
2022-12-29T15:27:05.523Z,9.17
2022-12-29T15:29:22.857Z,9.20
2022-12-29T15:31:40.287Z,9.13
2022-12-29T15:33:57.594Z,9.01
2022-12-29T15:36:14.874Z,8.87
2022-12-29T15:38:38.628Z,8.84
2022-12-29T15:40:57.253Z,8.79
2022-12-29T15:43:14.343Z,8.67
2022-12-29T15:45:31.424Z,8.59
2022-12-29T15:47:49.415Z,8.50
2022-12-29T15:50:06.434Z,8.35
2022-12-29T15:52:23.719Z,8.19
2022-12-29T15:54:40.788Z,8.13
2022-12-29T15:56:57.831Z,8.03
2022-12-29T15:59:14.888Z,7.96
2022-12-29T16:01:31.858Z,7.88
2022-12-29T16:03:48.993Z,7.83
2022-12-29T16:06:06.373Z,7.76
2022-12-29T16:08:23.787Z,7.67
2022-12-29T16:10:40.827Z,7.63
2022-12-29T16:12:57.853Z,7.56
2022-12-29T16:15:14.916Z,7.53
2022-12-29T16:17:32.920Z,7.44
2022-12-29T16:19:49.859Z,7.36
2022-12-29T16:22:07.855Z,7.31
2022-12-29T16:24:25.126Z,7.26
2022-12-29T16:26:42.162Z,7.29
2022-12-29T16:28:59.153Z,7.18
2022-12-29T16:31:16.474Z,7.17
2022-12-29T16:33:34.766Z,7.18
2022-12-29T16:35:52.043Z,7.15
2022-12-29T16:38:10.090Z,7.15
2022-12-29T16:40:27.337Z,7.18
2022-12-29T16:42:50.843Z,7.21
2022-12-29T16:45:09.847Z,7.20
2022-12-29T16:47:26.780Z,7.16
2022-12-29T16:49:43.689Z,7.13
2022-12-29T16:52:01.952Z,7.13
2022-12-29T16:54:19.229Z,7.06
2022-12-29T16:56:36.461Z,7.00
2022-12-29T16:58:54.538Z,6.94
2022-12-29T17:01:11.909Z,6.91
2022-12-29T17:03:29.930Z,6.94
2022-12-29T17:05:50.280Z,6.88
2022-12-29T17:08:11.356Z,6.78
2022-12-29T17:10:28.383Z,6.78
2022-12-29T17:12:45.400Z,6.72
2022-12-29T17:15:03.510Z,6.71
2022-12-29T17:17:22.344Z,6.62
2022-12-29T17:19:39.574Z,6.62
2022-12-29T17:21:56.899Z,6.59
2022-12-29T17:24:14.017Z,6.54
2022-12-29T17:26:31.429Z,6.49
2022-12-29T17:28:48.763Z,6.52
2022-12-29T17:31:05.837Z,6.48
2022-12-29T17:33:22.954Z,6.47
2022-12-29T17:35:40.469Z,6.56
2022-12-29T17:37:58.851Z,6.53
2022-12-29T17:40:16.099Z,6.45
2022-12-29T17:42:33.174Z,6.51
2022-12-29T17:44:50.060Z,6.43
2022-12-29T17:47:08.024Z,6.39
2022-12-29T17:49:25.455Z,6.44
2022-12-29T17:51:43.720Z,6.45
2022-12-29T17:54:00.723Z,6.37
2022-12-29T17:56:17.698Z,6.31
2022-12-29T17:58:35.057Z,6.27
2022-12-29T18:00:52.145Z,6.22
2022-12-29T18:03:09.618Z,6.16
2022-12-29T18:05:26.727Z,6.22
2022-12-29T18:07:43.702Z,6.21
2022-12-29T18:10:00.735Z,6.13
2022-12-29T18:12:17.836Z,6.12
2022-12-29T18:14:35.278Z,6.15
2022-12-29T18:16:52.472Z,6.09
2022-12-29T18:19:09.508Z,6.07
2022-12-29T18:21:26.445Z,6.04
2022-12-29T18:23:43.498Z,5.95
2022-12-29T18:26:00.566Z,5.96
2022-12-29T18:28:17.926Z,5.89
2022-12-29T18:30:34.815Z,5.86
2022-12-29T18:32:51.856Z,5.86
2022-12-29T18:35:08.900Z,5.82
2022-12-29T18:37:26.842Z,5.86
2022-12-29T18:39:45.048Z,5.80
2022-12-29T18:42:02.993Z,5.74
2022-12-29T18:44:20.071Z,5.75
2022-12-29T18:46:38.097Z,5.76
2022-12-29T18:48:55.401Z,5.73
2022-12-29T18:51:12.348Z,5.65
2022-12-29T18:53:29.454Z,5.66
2022-12-29T18:55:46.702Z,5.61
2022-12-29T18:58:03.593Z,5.60
2022-12-29T19:00:20.508Z,5.58
2022-12-29T19:02:37.838Z,5.59
2022-12-29T19:05:02.068Z,5.55
2022-12-29T19:07:23.003Z,5.61
2022-12-29T19:09:40.176Z,5.66
2022-12-29T19:11:57.141Z,5.74
2022-12-29T19:14:14.013Z,5.68
2022-12-29T19:16:31.018Z,5.70
2022-12-29T19:19:00.972Z,5.70
2022-12-29T19:21:24.640Z,5.72
2022-12-29T19:23:42.900Z,5.72
2022-12-29T19:25:59.940Z,5.76
2022-12-29T19:28:16.829Z,5.84
2022-12-29T19:30:34.181Z,5.87
2022-12-29T19:32:51.437Z,5.83
2022-12-29T19:35:08.478Z,5.91
2022-12-29T19:37:25.469Z,5.91
2022-12-29T19:39:42.630Z,5.92
2022-12-29T19:42:05.112Z,5.88
2022-12-29T19:44:22.814Z,5.97
2022-12-29T19:46:40.179Z,6.03
2022-12-29T19:48:58.471Z,6.08
2022-12-29T19:51:15.490Z,6.08
2022-12-29T19:53:38.088Z,6.27
2022-12-29T19:55:55.342Z,6.30
2022-12-29T19:58:12.324Z,6.41
2022-12-29T20:00:29.404Z,6.58
2022-12-29T20:02:46.739Z,6.65
2022-12-29T20:05:03.865Z,6.73
2022-12-29T20:07:20.945Z,6.83
2022-12-29T20:09:37.810Z,6.87
2022-12-29T20:11:55.637Z,6.87
2022-12-29T20:14:12.516Z,6.85
2022-12-29T20:16:29.983Z,6.86
2022-12-29T20:18:47.070Z,6.81
2022-12-29T20:21:05.196Z,6.68
2022-12-29T20:23:23.579Z,6.60
2022-12-29T20:25:46.365Z,6.49
2022-12-29T20:28:03.945Z,6.39
2022-12-29T20:30:22.160Z,6.31
2022-12-29T20:32:39.236Z,6.17
2022-12-29T20:34:57.167Z,6.11
2022-12-29T20:37:14.447Z,6.07
2022-12-29T20:39:31.755Z,6.00
2022-12-29T20:41:48.819Z,5.96
2022-12-29T20:44:06.183Z,5.91
2022-12-29T20:46:29.907Z,5.89
2022-12-29T20:48:50.883Z,5.92
2022-12-29T20:51:07.924Z,5.90
2022-12-29T20:53:26.332Z,5.88
2022-12-29T20:55:43.242Z,5.82
2022-12-29T21:00:37.158Z,5.75
2022-12-29T21:02:55.247Z,5.95
2022-12-29T21:05:23.780Z,6.18
2022-12-29T21:07:41.892Z,6.29
2022-12-29T21:09:59.170Z,6.29
2022-12-29T21:12:16.211Z,6.29
2022-12-29T21:14:33.175Z,6.27
2022-12-29T21:16:50.256Z,6.32
2022-12-29T21:19:07.506Z,6.45
2022-12-29T21:21:25.778Z,6.58
2022-12-29T21:23:42.987Z,6.54
2022-12-29T21:25:59.995Z,6.47
2022-12-29T21:28:16.915Z,6.44
2022-12-29T21:30:34.266Z,6.44
2022-12-29T21:32:51.641Z,6.39
2022-12-29T21:35:08.642Z,6.34
2022-12-29T21:37:25.584Z,6.26
2022-12-29T21:39:42.842Z,6.21
2022-12-29T21:42:00.840Z,6.25
2022-12-29T21:44:17.831Z,6.24
2022-12-29T21:46:35.143Z,6.16
2022-12-29T21:48:52.218Z,6.11
2022-12-29T21:51:09.109Z,6.07
2022-12-29T21:53:26.152Z,6.03
2022-12-29T21:55:44.046Z,6.00
2022-12-29T21:58:01.114Z,5.98
2022-12-29T22:00:18.114Z,5.95
2022-12-29T22:02:35.200Z,5.92
2022-12-29T22:04:52.684Z,5.88
2022-12-29T22:07:09.980Z,5.79
2022-12-29T22:09:26.966Z,5.78
2022-12-29T22:11:43.876Z,5.70
2022-12-29T22:14:00.779Z,5.63
2022-12-29T22:16:18.974Z,5.66
2022-12-29T22:18:36.148Z,5.59
2022-12-29T22:20:53.504Z,5.55
2022-12-29T22:23:11.808Z,5.53
2022-12-29T22:25:29.018Z,5.45
2022-12-29T22:27:45.940Z,5.39
2022-12-29T22:30:03.033Z,5.44
2022-12-29T22:32:22.025Z,5.38
2022-12-29T22:34:40.050Z,5.36
2022-12-29T22:36:58.100Z,5.35
2022-12-29T22:39:15.088Z,5.34
2022-12-29T22:41:32.316Z,5.31
2022-12-29T22:43:49.705Z,5.31
2022-12-29T22:46:07.063Z,5.31
2022-12-29T22:48:24.118Z,5.36
2022-12-29T22:50:42.009Z,5.42
2022-12-29T22:52:59.206Z,5.45
2022-12-29T22:55:16.286Z,5.45
2022-12-29T22:57:33.169Z,5.50
2022-12-29T22:59:51.239Z,5.45
2022-12-29T23:02:09.291Z,5.48
2022-12-29T23:05:01.656Z,5.54
2022-12-29T23:07:03.365Z,5.53
2022-12-29T23:09:20.354Z,5.53
2022-12-29T23:11:37.347Z,5.53
2022-12-29T23:13:55.360Z,5.51
2022-12-29T23:16:12.420Z,5.47
2022-12-29T23:18:29.506Z,5.47
2022-12-29T23:20:46.777Z,5.41
2022-12-29T23:23:03.940Z,5.36
2022-12-29T23:25:21.000Z,5.33
2022-12-29T23:27:38.111Z,5.25
2022-12-29T23:29:55.356Z,5.22
2022-12-29T23:32:12.332Z,5.15
2022-12-29T23:34:29.272Z,5.07
2022-12-29T23:36:47.475Z,5.02
2022-12-29T23:39:05.447Z,4.94
2022-12-29T23:41:22.654Z,4.88
2022-12-29T23:43:42.716Z,5.00
2022-12-29T23:45:59.987Z,4.88
2022-12-29T23:48:17.023Z,4.77
2022-12-29T23:50:35.161Z,4.68
2022-12-29T23:52:53.332Z,4.64
2022-12-29T23:55:10.343Z,4.56
2022-12-29T23:57:30.166Z,4.52
2022-12-29T23:59:47.239Z,4.50
